ADDS METAR Data INFO
IDs: Format: Raw Decoded Include TAF

Data at: 1810 UTC 18 Feb 2018

KSLK 181751Z AUTO 25010G16KT 210V280 10SM BKN023 OVC031 M02/M06 A3017 RMK AO2 SLP241 T10221061 11022 21050 53008 $
KSLK 181651Z AUTO 26009KT 10SM OVC015 M03/M06 A3016 RMK AO2 SLP236 T10281056 $
KSLK 181625Z AUTO 25010KT 10SM OVC016 M03/M06 A3016 RMK AO2 T10331056 $
KSLK 181551Z AUTO 25007KT 10SM OVC012 M04/M06 A3016 RMK AO2 SLP238 T10391056 $
KSLK 181451Z AUTO 25009G14KT 10SM OVC010 M04/M06 A3015 RMK AO2 SLP233 T10441056 53031 $
KSLK 181438Z AUTO 27008KT 230V300 9SM OVC010 M04/M06 A3014 RMK AO2 T10441056 $
KSLK 181351Z AUTO 24004KT 9SM OVC009 M04/M06 A3010 RMK AO2 SLP215 T10441061 $
KSLK 181300Z AUTO 24007KT 10SM OVC014 M05/M07 A3006 RMK AO2 PRESRR T10501067 $
KSLK 181251Z AUTO 25007KT 10SM OVC016 M05/M07 A3005 RMK AO2 SLP200 T10501067 $
KSLK 181243Z AUTO 25007KT 210V270 10SM OVC014 M05/M07 A3004 RMK AO2 T10501067 $
KSLK 181151Z AUTO 26006KT 10SM OVC017 M05/M07 A3000 RMK AO2 SLP183 60003 70004 T10501067 11044 21050 53024 $
KSLK 181051Z AUTO VRB04KT 10SM BKN016 OVC024 M05/M07 A2996 RMK AO2 SNE15 SLP167 P0000 T10501072 $
KSLK 181030Z AUTO 00000KT 10SM BKN016 OVC031 M05/M07 A2995 RMK AO2 SNE15 P0000 T10501067 $
KSLK 180951Z AUTO VRB04KT 5SM -SN BR OVC032 M05/M07 A2993 RMK AO2 SLP157 P0001 T10501067 $
KSLK 180936Z AUTO 3SM -SN BR FEW010 OVC024 M04/M06 A2992 RMK AO2 P0001 T10441061 $
KSLK 180924Z AUTO VRB05KT 1 3/4SM -SN BR SCT012 OVC017 M04/M06 A2991 RMK AO2 P0001 T10441056 $
KSLK 180851Z AUTO 24004KT 1SM -SN BR VV013 M04/M05 A2988 RMK AO2 SLP139 P0001 60002 T10441050 53010 $
KSLK 180841Z AUTO 24003KT 1 1/4SM -SN BR OVC014 M04/M05 A2987 RMK AO2 P0001 T10441050 $
KSLK 180751Z AUTO 25003KT 1 1/4SM -SN BR OVC018 M04/M05 A2985 RMK AO2 SLP130 P0001 T10441050 $
KSLK 180726Z AUTO 23004KT 1 3/4SM -SN BR OVC022 M05/M05 A2985 RMK AO2 P0000 T10501050 $
KSLK 180716Z AUTO 23004KT 2SM -SN BR OVC026 M05/M05 A2985 RMK AO2 P0000 T10501050 $
KSLK 180702Z AUTO 24004KT 2SM -SN BR OVC034 M05/M05 A2985 RMK AO2 P0000 T10501050 $
KSLK 180651Z AUTO 24004KT 3SM -SN BR OVC044 M05/M05 A2984 RMK AO2 SLP129 P0000 T10501050 $
KSLK 180602Z AUTO 24004KT 4SM -SN BR BKN034 OVC080 M04/M06 A2985 RMK AO2 P0000 T10441056 $
KSLK 180551Z AUTO 24005KT 2 1/2SM -SN BR OVC030 M05/M06 A2985 RMK AO2 SLP131 P0001 60001 T10501056 11022 21050 56019 $
KSLK 180546Z AUTO 24005KT 2SM -SN BR OVC030 M04/M06 A2985 RMK AO2 P0001 $
KSLK 180541Z AUTO 23005KT 1 1/2SM -SN BR OVC026 M04/M06 A2985 RMK AO2 P0001 T10441056 $
KSLK 180526Z AUTO 23004KT 2SM -SN BR OVC026 M04/M06 A2986 RMK AO2 P0001 T10441056 $
KSLK 180502Z AUTO 22004KT 1 1/2SM -SN BR OVC026 M04/M06 A2987 RMK AO2 P0000 T10441056 $
KSLK 180451Z AUTO 22004KT 2 1/2SM -SN BR OVC032 M04/M06 A2987 RMK AO2 SLP140 P0000 T10441056 410171211 $
KSLK 180446Z AUTO 22005KT 2 1/2SM -SN BR OVC034 M05/M06 A2988 RMK AO2 P0000 $
KSLK 180436Z AUTO 22004KT 2SM -SN BR OVC028 M04/M06 A2988 RMK AO2 P0000 T10441056 $
KSLK 180357Z AUTO 22008KT 1SM -SN BR VV015 M04/M06 A2990 RMK AO2 P0000 T10441056 $
KSLK 180348Z AUTO 21010KT 3/4SM -SN BR VV012 M04/M06 A2991 RMK AO2 SLP153 P0000 T10441061 $
KSLK 180347Z AUTO 21011KT 3/4SM -SN BR VV012 M04/M06 A2991 RMK AO2 P0000 $
KSLK 180337Z AUTO 22010KT 1 1/4SM -SN BR OVC018 M04/M07 A2991 RMK AO2 P0000 T10441067 $
KSLK 180324Z AUTO 22009KT 2 1/2SM -SN OVC026 M04/M07 A2992 RMK AO2 P0000 T10391072 $
KSLK 180251Z AUTO 21013KT 5SM -SN OVC036 M03/M08 A2992 RMK AO2 SNB36 SLP157 P0000 60000 T10331083 55016 $
KSLK 180151Z AUTO 20014KT 10SM BKN055 BKN070 OVC090 M03/M09 A2992 RMK AO2 SLP158 T10281094 $
KSLK 180051Z AUTO 20016G20KT 10SM BKN100 M03/M12 A2993 RMK AO2 SLP169 T10281117 $
KSLK 172351Z AUTO 21011KT 10SM BKN110 M03/M12 A2997 RMK AO2 SLP183 T10281122 11017 21044 56014 $
KSLK 172251Z AUTO 19013KT 10SM SCT120 M02/M14 A2997 RMK AO2 SLP184 T10221139 $
KSLK 172151Z AUTO 17004KT 10SM CLR M02/M14 A2999 RMK AO2 SLP188 T10171144 $
KSLK 172051Z AUTO 18006KT 10SM CLR M02/M15 A3001 RMK AO2 SLP195 T10171150 58036 $
KSLK 171951Z AUTO 20010KT 10SM CLR M02/M15 A3005 RMK AO2 PRESFR SLP210 T10221150 $
KSLK 171851Z AUTO 22012KT 10SM CLR M03/M14 A3010 RMK AO2 SLP224 T10281139 $
KSLK 171751Z AUTO 22008KT 10SM CLR M04/M13 A3012 RMK AO2 SLP232 T10441128 11044 21206 58028 $
KSLK 171651Z AUTO 22007KT 10SM CLR M06/M13 A3014 RMK AO2 PRESFR SLP238 T10561133 $
KSLK 171551Z AUTO 21009KT 10SM CLR M07/M12 A3020 RMK AO2 SLP257 T10721122 $
KSLK 171451Z AUTO 21012KT 10SM CLR M08/M13 A3021 RMK AO2 SLP261 T10781128 58001 $
KSLK 171351Z AUTO 23010KT 10SM CLR M11/M13 A3022 RMK AO2 SLP266 T11061128 $
KSLK 171251Z AUTO 00000KT 10SM CLR M19/M21 A3023 RMK AO2 SLP273 T11891211 $
KSLK 171151Z AUTO 00000KT 10SM CLR M21/M23 A3021 RMK AO2 SLP270 70004 I6000 T12061228 11150 21211 53015 $
KSLK 171051Z AUTO 00000KT 10SM CLR M20/M22 A3019 RMK AO2 SLP259 T12001217 $
KSLK 170951Z AUTO 00000KT 10SM CLR M19/M21 A3018 RMK AO2 SLP256 T11941211 $
KSLK 170851Z AUTO 00000KT 10SM CLR M19/M21 A3017 RMK AO2 SLP252 I1000 I3000 T11941211 51018 $
KSLK 170751Z AUTO 00000KT 10SM CLR M18/M19 A3015 RMK AO2 SLP242 I1000 T11831194 $
KSLK 170651Z AUTO 00000KT 10SM CLR M17/M18 A3014 RMK AO2 SLP238 I1000 T11671178